Superferry II — SWKV — position and weather

sailwx.info

Track history (hours):
 
Tides and Currents Weather Stations Pressure Air Temp Water Temp Dewpoint Dewpoint Depression Visibility Wind Speed Wind Dir Waves Ship Positions

Superferry II

Last reported at 2014-Sep-20 05:20 UTC. Time now 2014-Sep-20 08:02 UTC.
Position N 37°60' E 024°08'.

Length 122 m; draft 4.7 m.

Type: Passenger vessel. MMSI: 237001000.

Date/timePositionNaut miles runAvg speedWind from/ knotsBaromVisibWave heightAir tempDewpointWater temp
2014-Sep-20 05:20N 37°60' E 024°08'5 0.5
2014-Sep-19 20:31N 38°01' E 024°03'2 0.5
2014-Sep-19 16:33N 38°00' E 024°05'3 3.1
2014-Sep-19 15:28N 38°01' E 024°01'5115.6
2014-Sep-19 12:12N 37°38' E 024°59'1016.1
2014-Sep-19 11:33N 37°32' E 025°09'9 9.1
2014-Sep-19 10:34N 37°28' E 025°19'0 0.0
2014-Sep-19 09:34N 37°28' E 025°19'1312.8
2014-Sep-19 08:33N 37°34' E 025°05'5315.7
2014-Sep-19 05:10N 38°00' E 024°07'46 2.7
2014-Sep-18 12:13N 37°39' E 024°58'1116.8
2014-Sep-18 11:33N 37°32' E 025°09'9 9.1
2014-Sep-18 10:34N 37°28' E 025°19'0 0.0
2014-Sep-18 09:33N 37°28' E 025°19'1312.8
2014-Sep-18 08:32N 37°34' E 025°05'33 1.8
2014-Sep-17 14:16N 37°54' E 024°32'2613.2
2014-Sep-17 12:18N 37°39' E 024°58'1114.6
2014-Sep-17 11:33N 37°32' E 025°09'9 9.1
2014-Sep-17 10:33N 37°28' E 025°19'0 0.0
2014-Sep-17 09:33N 37°28' E 025°19'1110.9
2014-Sep-17 08:33N 37°33' E 025°07'9 0.4
2014-Sep-16 12:14N 37°39' E 024°58'1116.0
2014-Sep-16 11:33N 37°32' E 025°09'9 9.1
2014-Sep-16 10:33N 37°28' E 025°19'0 0.0
2014-Sep-16 09:33N 37°28' E 025°19'1312.8
2014-Sep-16 08:33N 37°34' E 025°05'5315.8
2014-Sep-16 05:11N 38°00' E 024°06'2 0.2
2014-Sep-15 15:33N 37°59' E 024°09'4313.7
2014-Sep-15 12:27N 37°40' E 024°57'1214.0
2014-Sep-15 11:34N 37°32' E 025°09'9 9.0
2014-Sep-15 10:33N 37°28' E 025°19'0 0.0
2014-Sep-15 09:32N 37°28' E 025°19'1212.4
2014-Sep-15 08:34N 37°33' E 025°06'5416.0
2014-Sep-15 05:12N 37°60' E 024°07'2 0.2
2014-Sep-14 16:33N 38°01' E 024°04'4511.2
2014-Sep-14 12:33N 37°41' E 024°55'1514.6
2014-Sep-14 11:33N 37°32' E 025°09'9 9.2
2014-Sep-14 10:33N 37°28' E 025°19'0 0.0
2014-Sep-14 09:33N 37°28' E 025°19'1212.1
2014-Sep-14 08:32N 37°34' E 025°06'50 2.9
2014-Sep-13 15:08N 37°59' E 024°12'4115.0
2014-Sep-13 12:25N 37°40' E 024°57'1214.2
2014-Sep-13 11:33N 37°32' E 025°09'9 9.1
2014-Sep-13 10:34N 37°28' E 025°19'4 4.5
2014-Sep-13 09:33N 37°29' E 025°14'1010.3
2014-Sep-13 08:33N 37°35' E 025°03'5315.3
2014-Sep-13 05:07N 38°01' E 024°05'1 0.2
2014-Sep-12 20:30N 38°01' E 024°03'50 6.0
2014-Sep-12 12:11N 37°38' E 024°59'1016.1
2014-Sep-12 11:33N 37°32' E 025°09'9 9.1
2014-Sep-12 10:33N 37°28' E 025°19'2 2.3
2014-Sep-12 09:34N 37°29' E 025°17'1312.6
2014-Sep-12 08:33N 37°35' E 025°03'5115.5
2014-Sep-12 05:16N 37°60' E 024°07'1 0.0
2014-Sep-11 15:18N 38°00' E 024°06'1418.2
2014-Sep-11 14:32N 37°56' E 024°23'3014.0
2014-Sep-11 12:23N 37°41' E 024°56'1416.8
2014-Sep-11 11:33N 37°32' E 025°09'9 9.1
2014-Sep-11 10:33N 37°28' E 025°19'0 0.0
2014-Sep-11 09:33N 37°28' E 025°19'1212.2
2014-Sep-11 08:33N 37°33' E 025°06'9 0.5
2014-Sep-10 12:23N 37°40' E 024°57'1215.0
2014-Sep-10 11:33N 37°32' E 025°09'9 9.0
2014-Sep-10 10:33N 37°28' E 025°19'0 0.0
2014-Sep-10 09:33N 37°28' E 025°19'1312.7
2014-Sep-10 08:33N 37°34' E 025°05'  
Track history (hours):
 
Tides and Currents Weather Stations Pressure Air Temp Water Temp Dewpoint Dewpoint Depression Visibility Wind Speed Wind Dir Waves Ship Positions

Superferry II

Last reported at 2014-Sep-20 05:20 UTC. Time now 2014-Sep-20 08:02 UTC.
Position N 37°60' E 024°08'.

Length 122 m; draft 4.7 m.

Type: Passenger vessel. MMSI: 237001000.

Date/timePositionNaut miles runAvg speedWind from/ knotsBaromVisibWave heightAir tempDewpointWater temp
2014-Sep-20 05:20N 37°60' E 024°08'5 0.5
2014-Sep-19 20:31N 38°01' E 024°03'2 0.5
2014-Sep-19 16:33N 38°00' E 024°05'3 3.1
2014-Sep-19 15:28N 38°01' E 024°01'5115.6
2014-Sep-19 12:12N 37°38' E 024°59'1016.1
2014-Sep-19 11:33N 37°32' E 025°09'9 9.1
2014-Sep-19 10:34N 37°28' E 025°19'0 0.0
2014-Sep-19 09:34N 37°28' E 025°19'1312.8
2014-Sep-19 08:33N 37°34' E 025°05'5315.7
2014-Sep-19 05:10N 38°00' E 024°07'46 2.7
2014-Sep-18 12:13N 37°39' E 024°58'1116.8
2014-Sep-18 11:33N 37°32' E 025°09'9 9.1
2014-Sep-18 10:34N 37°28' E 025°19'0 0.0
2014-Sep-18 09:33N 37°28' E 025°19'1312.8
2014-Sep-18 08:32N 37°34' E 025°05'33 1.8
2014-Sep-17 14:16N 37°54' E 024°32'2613.2
2014-Sep-17 12:18N 37°39' E 024°58'1114.6
2014-Sep-17 11:33N 37°32' E 025°09'9 9.1
2014-Sep-17 10:33N 37°28' E 025°19'0 0.0
2014-Sep-17 09:33N 37°28' E 025°19'1110.9
2014-Sep-17 08:33N 37°33' E 025°07'9 0.4
2014-Sep-16 12:14N 37°39' E 024°58'1116.0
2014-Sep-16 11:33N 37°32' E 025°09'9 9.1
2014-Sep-16 10:33N 37°28' E 025°19'0 0.0
2014-Sep-16 09:33N 37°28' E 025°19'1312.8
2014-Sep-16 08:33N 37°34' E 025°05'5315.8
2014-Sep-16 05:11N 38°00' E 024°06'2 0.2
2014-Sep-15 15:33N 37°59' E 024°09'4313.7
2014-Sep-15 12:27N 37°40' E 024°57'1214.0
2014-Sep-15 11:34N 37°32' E 025°09'9 9.0
2014-Sep-15 10:33N 37°28' E 025°19'0 0.0
2014-Sep-15 09:32N 37°28' E 025°19'1212.4
2014-Sep-15 08:34N 37°33' E 025°06'5416.0
2014-Sep-15 05:12N 37°60' E 024°07'2 0.2
2014-Sep-14 16:33N 38°01' E 024°04'4511.2
2014-Sep-14 12:33N 37°41' E 024°55'1514.6
2014-Sep-14 11:33N 37°32' E 025°09'9 9.2
2014-Sep-14 10:33N 37°28' E 025°19'0 0.0
2014-Sep-14 09:33N 37°28' E 025°19'1212.1
2014-Sep-14 08:32N 37°34' E 025°06'50 2.9
2014-Sep-13 15:08N 37°59' E 024°12'4115.0
2014-Sep-13 12:25N 37°40' E 024°57'1214.2
2014-Sep-13 11:33N 37°32' E 025°09'9 9.1
2014-Sep-13 10:34N 37°28' E 025°19'4 4.5
2014-Sep-13 09:33N 37°29' E 025°14'1010.3
2014-Sep-13 08:33N 37°35' E 025°03'5315.3
2014-Sep-13 05:07N 38°01' E 024°05'1 0.2
2014-Sep-12 20:30N 38°01' E 024°03'50 6.0
2014-Sep-12 12:11N 37°38' E 024°59'1016.1
2014-Sep-12 11:33N 37°32' E 025°09'9 9.1
2014-Sep-12 10:33N 37°28' E 025°19'2 2.3
2014-Sep-12 09:34N 37°29' E 025°17'1312.6
2014-Sep-12 08:33N 37°35' E 025°03'5115.5
2014-Sep-12 05:16N 37°60' E 024°07'1 0.0
2014-Sep-11 15:18N 38°00' E 024°06'1418.2
2014-Sep-11 14:32N 37°56' E 024°23'3014.0
2014-Sep-11 12:23N 37°41' E 024°56'1416.8
2014-Sep-11 11:33N 37°32' E 025°09'9 9.1
2014-Sep-11 10:33N 37°28' E 025°19'0 0.0
2014-Sep-11 09:33N 37°28' E 025°19'1212.2
2014-Sep-11 08:33N 37°33' E 025°06'9 0.5
2014-Sep-10 12:23N 37°40' E 024°57'1215.0
2014-Sep-10 11:33N 37°32' E 025°09'9 9.0
2014-Sep-10 10:33N 37°28' E 025°19'0 0.0
2014-Sep-10 09:33N 37°28' E 025°19'1312.7
2014-Sep-10 08:33N 37°34' E 025°05'  

Dump ship's entire track history